Temp: 12.6°C   Baro: 1022.3mb
  Wind: 0.9mph   Dir: NE (54°)
  Rain: 0.0mm (0.0mm/hr)
  Solar: 0W/m2  Hum: 82%

Historic data

Bath Spa Weather Station Historical Data
Daily Summary for September 25, 2019 Units:  Both    English   Metric
Daily Weekly Monthly Yearly Custom
  High: Low: Average:
Temperature: 62.1 °F /  16.7 °C 50.1 °F /  10.1 °C 56.1 °F /  13.4 °C
Dew Point: 57.6 °F /  14.2 °C 46.7 °F /  8.2 °C 52.7 °F /  11.5 °C
Humidity: 91.6% 84% 88%
Wind Speed: 14.9mph /  24km/h - 6.5mph /  10.5km/h
Wind Gust: 32mph /  51.5km/h - -
Wind- - SW
Pressure: 29.91 in /  1012.8 hPa 29.68 in /  1005 hPa -
Precipitation: 0.07 in /  1.78 mm    
Historical Graphs
 
 
Tabular Data for September 25, 2019
Time Temperature Dew Point Pressure Wind Wind Speed Wind Gust Humidity Rainfall Rate (Hourly) solar
00:04 50.5 °F /  10.3 °C 47.1 °F /  8.4 °C 29.84in /  1010.4hPa Calm     88% 0.00in /  0mm 0 W/m2
00:09 50.5 °F /  10.3 °C 47.1 °F /  8.4 °C 29.84in /  1010.4hPa Calm     88% 0.00in /  0mm 0 W/m2
00:14 50.5 °F /  10.3 °C 47.2 °F /  8.4 °C 29.84in /  1010.4hPa Calm     88.3% 0.00in /  0mm 0 W/m2
00:19 50.5 °F /  10.3 °C 47.5 °F /  8.6 °C 29.84in /  1010.4hPa Calm     89% 0.00in /  0mm 0 W/m2
00:24 50.5 °F /  10.3 °C 47.5 °F /  8.6 °C 29.84in /  1010.4hPa Calm     89% 0.00in /  0mm 0 W/m2
00:29 50.5 °F /  10.3 °C 47.5 °F /  8.6 °C 29.84in /  1010.4hPa Calm     89% 0.00in /  0mm 0 W/m2
00:34 50.5 °F /  10.3 °C 47.5 °F /  8.6 °C 29.84in /  1010.4hPa Calm   1mph /  1.6km/h 89% 0.00in /  0mm 0 W/m2
00:39 50.5 °F /  10.3 °C 47.5 °F /  8.6 °C 29.85in /  1010.7hPa Calm   1mph /  1.6km/h 89% 0.00in /  0mm 0 W/m2
00:44 50.5 °F /  10.3 °C 47.5 °F /  8.6 °C 29.85in /  1010.7hPa Calm   2mph /  3.2km/h 89% 0.00in /  0mm 0 W/m2
00:49 50.7 °F /  10.4 °C 47.7 °F /  8.7 °C 29.85in /  1010.7hPa SW 0.9mph /  1.4km/h 4mph /  6.4km/h 89% 0.00in /  0mm 0 W/m2
00:54 50.7 °F /  10.4 °C 47.7 °F /  8.7 °C 29.85in /  1010.7hPa SW 1mph /  1.6km/h 3mph /  4.8km/h 89% 0.00in /  0mm 0 W/m2
00:59 50.7 °F /  10.4 °C 47.7 °F /  8.7 °C 29.85in /  1010.7hPa SW 1.2mph /  1.9km/h 4mph /  6.4km/h 89% 0.00in /  0mm 0 W/m2
01:04 50.8 °F /  10.4 °C 47.8 °F /  8.8 °C 29.85in /  1010.7hPa SW 0.6mph /  1km/h 2mph /  3.2km/h 89% 0.00in /  0mm 0 W/m2
01:09 50.9 °F /  10.5 °C 47.8 °F /  8.8 °C 29.85in /  1010.7hPa SW 0.1mph /  0.2km/h 3mph /  4.8km/h 89% 0.00in /  0mm 0 W/m2
01:14 50.7 °F /  10.4 °C 47.7 °F /  8.7 °C 29.85in /  1010.7hPa SW 1.2mph /  1.9km/h 4mph /  6.4km/h 89% 0.00in /  0mm 0 W/m2
01:19 50.8 °F /  10.4 °C 47.8 °F /  8.8 °C 29.85in /  1010.7hPa SW 0.8mph /  1.3km/h 4mph /  6.4km/h 89% 0.00in /  0mm 0 W/m2
01:24 50.8 °F /  10.4 °C 47.8 °F /  8.8 °C 29.85in /  1010.7hPa SW 0.7mph /  1.1km/h 3mph /  4.8km/h 89% 0.00in /  0mm 0 W/m2
01:29 50.7 °F /  10.4 °C 47.7 °F /  8.7 °C 29.86in /  1011.1hPa SW 0.5mph /  0.8km/h 3mph /  4.8km/h 89% 0.00in /  0mm 0 W/m2
01:34 50.7 °F /  10.4 °C 47.7 °F /  8.7 °C 29.86in /  1011.1hPa SW 1mph /  1.6km/h 3mph /  4.8km/h 89% 0.00in /  0mm 0 W/m2
01:39 50.7 °F /  10.4 °C 47.8 °F /  8.8 °C 29.86in /  1011.1hPa SW 2mph /  3.2km/h 7mph /  11.3km/h 89.9% 0.00in /  0mm 0 W/m2
01:44 51 °F /  10.6 °C 48 °F /  8.9 °C 29.86in /  1011.1hPa SW 3.1mph /  5km/h 7mph /  11.3km/h 89.7% 0.00in /  0mm 0 W/m2
01:49 51.2 °F /  10.7 °C 48.1 °F /  8.9 °C 29.86in /  1011.1hPa WSW 3.4mph /  5.5km/h 7mph /  11.3km/h 89% 0.00in /  0mm 0 W/m2
01:54 51.3 °F /  10.7 °C 48.2 °F /  9 °C 29.87in /  1011.4hPa WSW 3.9mph /  6.3km/h 9mph /  14.5km/h 89% 0.00in /  0mm 0 W/m2
01:59 51.2 °F /  10.7 °C 48.1 °F /  8.9 °C 29.87in /  1011.4hPa WSW 2.3mph /  3.7km/h 7mph /  11.3km/h 89% 0.00in /  0mm 0 W/m2
02:04 51.2 °F /  10.7 °C 48.1 °F /  8.9 °C 29.86in /  1011.1hPa WSW 4.1mph /  6.6km/h 10mph /  16.1km/h 89% 0.00in /  0mm 0 W/m2
02:09 51.3 °F /  10.7 °C 48.2 °F /  9 °C 29.87in /  1011.4hPa WSW 4.9mph /  7.9km/h 11mph /  17.7km/h 89% 0.00in /  0mm 0 W/m2
02:14 51.3 °F /  10.7 °C 48.2 °F /  9 °C 29.87in /  1011.4hPa WSW 4.9mph /  7.9km/h 9mph /  14.5km/h 89% 0.00in /  0mm 0 W/m2
02:19 51.3 °F /  10.7 °C 48.2 °F /  9 °C 29.87in /  1011.4hPa WSW 4.7mph /  7.6km/h 12mph /  19.3km/h 89% 0.00in /  0mm 0 W/m2
02:24 51.4 °F /  10.8 °C 48.4 °F /  9.1 °C 29.87in /  1011.4hPa WSW 4.8mph /  7.7km/h 12mph /  19.3km/h 89% 0.00in /  0mm 0 W/m2
02:29 51.4 °F /  10.8 °C 48.4 °F /  9.1 °C 29.87in /  1011.4hPa WSW 3.5mph /  5.6km/h 8mph /  12.9km/h 89% 0.00in /  0mm 0 W/m2
02:34 51.4 °F /  10.8 °C 48.4 °F /  9.1 °C 29.87in /  1011.4hPa SW 2.9mph /  4.7km/h 9mph /  14.5km/h 89% 0.00in /  0mm 0 W/m2
02:39 51.3 °F /  10.7 °C 48.3 °F /  9.1 °C 29.87in /  1011.4hPa SW 2.7mph /  4.3km/h 7mph /  11.3km/h 89% 0.00in /  0mm 0 W/m2
02:44 51.3 °F /  10.7 °C 48.2 °F /  9 °C 29.87in /  1011.4hPa SW 2.2mph /  3.5km/h 7mph /  11.3km/h 89% 0.00in /  0mm 0 W/m2
02:49 51.3 °F /  10.7 °C 48.2 °F /  9 °C 29.87in /  1011.4hPa SW 1.2mph /  1.9km/h 4mph /  6.4km/h 89% 0.00in /  0mm 0 W/m2
02:54 51.2 °F /  10.7 °C 48.1 °F /  8.9 °C 29.87in /  1011.4hPa SW 0.7mph /  1.1km/h 5mph /  8km/h 89% 0.00in /  0mm 0 W/m2
02:59 51.1 °F /  10.6 °C 48 °F /  8.9 °C 29.87in /  1011.4hPa SW 1.7mph /  2.7km/h 5mph /  8km/h 89% 0.00in /  0mm 0 W/m2
03:04 51.1 °F /  10.6 °C 48 °F /  8.9 °C 29.87in /  1011.4hPa SW 0.4mph /  0.6km/h 4mph /  6.4km/h 89% 0.00in /  0mm 0 W/m2
03:09 51.1 °F /  10.6 °C 48 °F /  8.9 °C 29.87in /  1011.4hPa SW 1.4mph /  2.3km/h 4mph /  6.4km/h 89% 0.00in /  0mm 0 W/m2
03:14 50.9 °F /  10.5 °C 47.8 °F /  8.8 °C 29.87in /  1011.4hPa SW 2.7mph /  4.3km/h 6mph /  9.7km/h 89% 0.00in /  0mm 0 W/m2
03:19 50.7 °F /  10.4 °C 47.3 °F /  8.5 °C 29.88in /  1011.7hPa SW 1.1mph /  1.8km/h 5mph /  8km/h 88% 0.00in /  0mm 0 W/m2
03:24 50.6 °F /  10.3 °C 47.2 °F /  8.4 °C 29.88in /  1011.7hPa Calm   3mph /  4.8km/h 88% 0.00in /  0mm 0 W/m2
03:29 50.5 °F /  10.3 °C 47.1 °F /  8.4 °C 29.88in /  1011.7hPa SW 0.9mph /  1.4km/h 4mph /  6.4km/h 88% 0.00in /  0mm 0 W/m2
03:34 50.4 °F /  10.2 °C 46.9 °F /  8.3 °C 29.88in /  1011.7hPa SW 0.6mph /  1km/h 4mph /  6.4km/h 88% 0.00in /  0mm 0 W/m2
03:39 50.3 °F /  10.2 °C 46.9 °F /  8.3 °C 29.88in /  1011.7hPa SW 0.9mph /  1.4km/h 4mph /  6.4km/h 88% 0.00in /  0mm 0 W/m2
03:44 50.3 °F /  10.2 °C 46.8 °F /  8.2 °C 29.89in /  1012.1hPa SW 1.4mph /  2.3km/h 7mph /  11.3km/h 88% 0.00in /  0mm 0 W/m2
03:49 50.4 °F /  10.2 °C 46.9 °F /  8.3 °C 29.89in /  1012.1hPa SW 2.6mph /  4.2km/h 6mph /  9.7km/h 88% 0.00in /  0mm 0 W/m2
03:54 50.4 °F /  10.2 °C 46.9 °F /  8.3 °C 29.89in /  1012.1hPa SW 1.9mph /  3.1km/h 6mph /  9.7km/h 88% 0.00in /  0mm 0 W/m2
03:59 50.5 °F /  10.3 °C 47.1 °F /  8.4 °C 29.89in /  1012.1hPa SW 1.2mph /  1.9km/h 6mph /  9.7km/h 88% 0.00in /  0mm 0 W/m2
04:04 50.4 °F /  10.2 °C 46.9 °F /  8.3 °C 29.88in /  1011.7hPa SW 0.9mph /  1.4km/h 4mph /  6.4km/h 88% 0.00in /  0mm 0 W/m2
04:09 50.4 °F /  10.2 °C 46.9 °F /  8.3 °C 29.89in /  1012.1hPa SW 2.1mph /  3.4km/h 6mph /  9.7km/h 88% 0.00in /  0mm 0 W/m2
04:14 50.5 °F /  10.3 °C 47.1 °F /  8.4 °C 29.89in /  1012.1hPa SW 1.9mph /  3.1km/h 6mph /  9.7km/h 88% 0.00in /  0mm 0 W/m2
04:19 50.5 °F /  10.3 °C 47.1 °F /  8.4 °C 29.89in /  1012.1hPa SW 1.1mph /  1.8km/h 5mph /  8km/h 88% 0.00in /  0mm 0 W/m2
04:24 50.5 °F /  10.3 °C 47 °F /  8.3 °C 29.89in /  1012.1hPa SW 1.6mph /  2.6km/h 5mph /  8km/h 88% 0.00in /  0mm 0 W/m2
04:29 50.4 °F /  10.2 °C 46.9 °F /  8.3 °C 29.90in /  1012.4hPa SW 0.5mph /  0.8km/h 3mph /  4.8km/h 88% 0.00in /  0mm 0 W/m2
04:34 50.2 °F /  10.1 °C 46.8 °F /  8.2 °C 29.90in /  1012.4hPa SW 0.4mph /  0.6km/h 4mph /  6.4km/h 88% 0.00in /  0mm 0 W/m2
04:39 50.2 °F /  10.1 °C 46.8 °F /  8.2 °C 29.89in /  1012.1hPa SW 0.8mph /  1.3km/h 4mph /  6.4km/h 88% 0.00in /  0mm 0 W/m2
04:44 50.2 °F /  10.1 °C 46.8 °F /  8.2 °C 29.90in /  1012.4hPa SW 0.2mph /  0.3km/h 3mph /  4.8km/h 88% 0.00in /  0mm 0 W/m2
04:49 50.2 °F /  10.1 °C 46.8 °F /  8.2 °C 29.90in /  1012.4hPa SW 0.7mph /  1.1km/h 4mph /  6.4km/h 88% 0.00in /  0mm 0 W/m2
04:54 50.2 °F /  10.1 °C 46.8 °F /  8.2 °C 29.90in /  1012.4hPa SW 0.1mph /  0.2km/h 2mph /  3.2km/h 88% 0.00in /  0mm 0 W/m2
04:59 50.1 °F /  10.1 °C 46.7 °F /  8.2 °C 29.90in /  1012.4hPa SW 1.2mph /  1.9km/h 3mph /  4.8km/h 88% 0.00in /  0mm 0 W/m2
05:04 50.3 °F /  10.2 °C 46.8 °F /  8.2 °C 29.90in /  1012.4hPa WSW 2.7mph /  4.3km/h 8mph /  12.9km/h 88% 0.00in /  0mm 0 W/m2
05:09 50.4 °F /  10.2 °C 46.9 °F /  8.3 °C 29.90in /  1012.4hPa WSW 1.2mph /  1.9km/h 4mph /  6.4km/h 88% 0.00in /  0mm 0 W/m2
05:14 50.4 °F /  10.2 °C 46.9 °F /  8.3 °C 29.90in /  1012.4hPa WSW 0.7mph /  1.1km/h 3mph /  4.8km/h 88% 0.00in /  0mm 0 W/m2
05:19 50.5 °F /  10.3 °C 47 °F /  8.3 °C 29.91in /  1012.8hPa WSW 4mph /  6.4km/h 10mph /  16.1km/h 88% 0.00in /  0mm 0 W/m2
05:24 50.5 °F /  10.3 °C 47.1 °F /  8.4 °C 29.90in /  1012.4hPa SW 2.1mph /  3.4km/h 10mph /  16.1km/h 88% 0.00in /  0mm 0 W/m2
05:29 50.7 °F /  10.4 °C 47.3 °F /  8.5 °C 29.90in /  1012.4hPa SW 4.2mph /  6.8km/h 8mph /  12.9km/h 88% 0.00in /  0mm 0 W/m2
05:34 50.7 °F /  10.4 °C 47.3 °F /  8.5 °C 29.90in /  1012.4hPa SW 1.8mph /  2.9km/h 6mph /  9.7km/h 88% 0.00in /  0mm 0 W/m2
05:39 50.8 °F /  10.4 °C 47.4 °F /  8.6 °C 29.90in /  1012.4hPa SW 2mph /  3.2km/h 6mph /  9.7km/h 88% 0.00in /  0mm 0 W/m2
05:44 50.8 °F /  10.4 °C 47.4 °F /  8.6 °C 29.90in /  1012.4hPa SW 2.2mph /  3.5km/h 6mph /  9.7km/h 88% 0.00in /  0mm 0 W/m2
05:49 50.9 °F /  10.5 °C 47.5 °F /  8.6 °C 29.90in /  1012.4hPa SW 1.1mph /  1.8km/h 4mph /  6.4km/h 88% 0.00in /  0mm 0 W/m2
05:54 50.9 °F /  10.5 °C 47.5 °F /  8.6 °C 29.90in /  1012.4hPa SW 0.1mph /  0.2km/h 3mph /  4.8km/h 88% 0.00in /  0mm 0 W/m2
05:59 50.7 °F /  10.4 °C 47.3 °F /  8.5 °C 29.90in /  1012.4hPa SW 0.3mph /  0.5km/h 3mph /  4.8km/h 88% 0.00in /  0mm 0 W/m2
06:04 50.7 °F /  10.4 °C 47.3 °F /  8.5 °C 29.90in /  1012.4hPa SW 0.1mph /  0.2km/h 3mph /  4.8km/h 88% 0.00in /  0mm 0 W/m2
06:09 50.7 °F /  10.4 °C 47.3 °F /  8.5 °C 29.90in /  1012.4hPa SW 0.9mph /  1.4km/h 4mph /  6.4km/h 88% 0.00in /  0mm 0 W/m2
06:14 50.5 °F /  10.3 °C 47.4 °F /  8.6 °C 29.90in /  1012.4hPa SW 0.3mph /  0.5km/h 2mph /  3.2km/h 88.8% 0.00in /  0mm 0 W/m2
06:19 50.5 °F /  10.3 °C 47.5 °F /  8.6 °C 29.90in /  1012.4hPa SW 0.7mph /  1.1km/h 4mph /  6.4km/h 89% 0.00in /  0mm 0 W/m2
06:24 50.7 °F /  10.4 °C 47.6 °F /  8.7 °C 29.90in /  1012.4hPa SW 2.1mph /  3.4km/h 6mph /  9.7km/h 89% 0.00in /  0mm 0 W/m2
06:29 51 °F /  10.6 °C 47.9 °F /  8.8 °C 29.90in /  1012.4hPa SW 1.6mph /  2.6km/h 6mph /  9.7km/h 89% 0.00in /  0mm 0 W/m2
06:34 51.1 °F /  10.6 °C 48 °F /  8.9 °C 29.90in /  1012.4hPa SW 0.9mph /  1.4km/h 6mph /  9.7km/h 89% 0.00in /  0mm 0 W/m2
06:39 51.3 °F /  10.7 °C 48.2 °F /  9 °C 29.90in /  1012.4hPa SW 1.8mph /  2.9km/h 6mph /  9.7km/h 89% 0.00in /  0mm 0 W/m2
06:44 51.4 °F /  10.8 °C 48.3 °F /  9.1 °C 29.90in /  1012.4hPa SW 3.2mph /  5.1km/h 8mph /  12.9km/h 89% 0.00in /  0mm 0 W/m2
06:49 51.5 °F /  10.8 °C 48.5 °F /  9.2 °C 29.90in /  1012.4hPa SW 2.8mph /  4.5km/h 7mph /  11.3km/h 89% 0.00in /  0mm 0 W/m2
06:54 51.6 °F /  10.9 °C 48.4 °F /  9.1 °C 29.90in /  1012.4hPa WSW 3.5mph /  5.6km/h 7mph /  11.3km/h 88.4% 0.00in /  0mm 0 W/m2
06:59 51.8 °F /  11 °C 48.5 °F /  9.2 °C 29.89in /  1012.1hPa WSW 2.8mph /  4.5km/h 6mph /  9.7km/h 88.3% 0.00in /  0mm 0 W/m2
07:04 52 °F /  11.1 °C 48.6 °F /  9.2 °C 29.89in /  1012.1hPa WSW 2mph /  3.2km/h 6mph /  9.7km/h 88% 0.00in /  0mm 0 W/m2
07:09 52 °F /  11.1 °C 48.6 °F /  9.2 °C 29.88in /  1011.7hPa WSW 0.4mph /  0.6km/h 6mph /  9.7km/h 88% 0.00in /  0mm 0 W/m2
07:14 52 °F /  11.1 °C 48.6 °F /  9.2 °C 29.89in /  1012.1hPa WSW 0.4mph /  0.6km/h 2mph /  3.2km/h 88% 0.00in /  0mm 0 W/m2
07:19 52 °F /  11.1 °C 48.6 °F /  9.2 °C 29.89in /  1012.1hPa WSW 2.6mph /  4.2km/h 6mph /  9.7km/h 88% 0.00in /  0mm 0 W/m2
07:24 52.2 °F /  11.2 °C 48.7 °F /  9.3 °C 29.89in /  1012.1hPa SW 3.4mph /  5.5km/h 10mph /  16.1km/h 88% 0.00in /  0mm 0 W/m2
07:29 52.3 °F /  11.3 °C 48.9 °F /  9.4 °C 29.89in /  1012.1hPa SW 3.4mph /  5.5km/h 10mph /  16.1km/h 88% 0.00in /  0mm 0 W/m2
07:34 52.5 °F /  11.4 °C 49.1 °F /  9.5 °C 29.89in /  1012.1hPa SW 4.2mph /  6.8km/h 8mph /  12.9km/h 88% 0.00in /  0mm 0 W/m2
07:39 52.7 °F /  11.5 °C 49.3 °F /  9.6 °C 29.89in /  1012.1hPa SW 2.4mph /  3.9km/h 8mph /  12.9km/h 88% 0.00in /  0mm 0 W/m2
07:44 52.8 °F /  11.6 °C 49.4 °F /  9.7 °C 29.89in /  1012.1hPa SW 3.7mph /  6km/h 9mph /  14.5km/h 88% 0.00in /  0mm 0 W/m2
07:49 52.9 °F /  11.6 °C 49.5 °F /  9.7 °C 29.89in /  1012.1hPa SW 2.5mph /  4km/h 6mph /  9.7km/h 88% 0.00in /  0mm 0 W/m2
07:54 53.1 °F /  11.7 °C 49.6 °F /  9.8 °C 29.89in /  1012.1hPa SW 1.7mph /  2.7km/h 5mph /  8km/h 88% 0.00in /  0mm 0 W/m2
07:59 53.5 °F /  11.9 °C 50.1 °F /  10.1 °C 29.89in /  1012.1hPa SW 1.1mph /  1.8km/h 5mph /  8km/h 88% 0.00in /  0mm 5 W/m2
08:04 53.5 °F /  11.9 °C 50.1 °F /  10.1 °C 29.89in /  1012.1hPa SW 0.7mph /  1.1km/h 4mph /  6.4km/h 88% 0.00in /  0mm 5 W/m2
08:09 53.4 °F /  11.9 °C 50 °F /  10 °C 29.90in /  1012.4hPa SW 0.7mph /  1.1km/h 3mph /  4.8km/h 88% 0.00in /  0mm 7 W/m2
08:14 53.2 °F /  11.8 °C 49.8 °F /  9.9 °C 29.90in /  1012.4hPa SW 2.3mph /  3.7km/h 5mph /  8km/h 88% 0.00in /  0mm 7 W/m2
08:19 53.2 °F /  11.8 °C 49.8 °F /  9.9 °C 29.91in /  1012.8hPa SW 2.5mph /  4km/h 6mph /  9.7km/h 88% 0.00in /  0mm 11 W/m2
08:24 53.2 °F /  11.8 °C 49.8 °F /  9.9 °C 29.91in /  1012.8hPa SW 1.3mph /  2.1km/h 4mph /  6.4km/h 88% 0.00in /  0mm 12 W/m2
08:29 53.3 °F /  11.8 °C 49.8 °F /  9.9 °C 29.91in /  1012.8hPa SW 0.3mph /  0.5km/h 3mph /  4.8km/h 88% 0.00in /  0mm 12 W/m2
08:34 53.3 °F /  11.8 °C 49.9 °F /  9.9 °C 29.91in /  1012.8hPa SW 0.7mph /  1.1km/h 5mph /  8km/h 88% 0.00in /  0mm 12 W/m2
08:39 53.4 °F /  11.9 °C 50 °F /  10 °C 29.91in /  1012.8hPa Calm     88% 0.00in /  0mm 19 W/m2
08:44 53.4 °F /  11.9 °C 50 °F /  10 °C 29.91in /  1012.8hPa Calm   1mph /  1.6km/h 88% 0.00in /  0mm 21 W/m2
08:49 53.4 °F /  11.9 °C 50 °F /  10 °C 29.91in /  1012.8hPa SW 1.4mph /  2.3km/h 4mph /  6.4km/h 88% 0.01in /  0.25mm 21 W/m2
08:54 53.4 °F /  11.9 °C 50 °F /  10 °C 29.91in /  1012.8hPa SW 0.6mph /  1km/h 4mph /  6.4km/h 88.1% 0.01in /  0.25mm 19 W/m2
08:59 53.4 °F /  11.9 °C 50.2 °F /  10.1 °C 29.90in /  1012.4hPa SW 1.5mph /  2.4km/h 5mph /  8km/h 89% 0.01in /  0.25mm 21 W/m2
09:04 53.3 °F /  11.8 °C 50.1 °F /  10.1 °C 29.90in /  1012.4hPa SW 0.3mph /  0.5km/h 5mph /  8km/h 89% 0.01in /  0.25mm 23 W/m2
09:09 53.2 °F /  11.8 °C 50 °F /  10 °C 29.90in /  1012.4hPa Calm     89% 0.01in /  0.25mm 26 W/m2
09:14 53.3 °F /  11.8 °C 50.1 °F /  10.1 °C 29.89in /  1012.1hPa Calm     89% 0.01in /  0.25mm 49 W/m2
09:19 53.4 °F /  11.9 °C 50.2 °F /  10.1 °C 29.89in /  1012.1hPa Calm     89% 0.01in /  0.25mm 49 W/m2
09:24 53.4 °F /  11.9 °C 50.2 °F /  10.1 °C 29.89in /  1012.1hPa SSW 1.2mph /  1.9km/h 5mph /  8km/h 89% 0.01in /  0.25mm 42 W/m2
09:29 53.3 °F /  11.8 °C 50.3 °F /  10.2 °C 29.89in /  1012.1hPa SSW 1.7mph /  2.7km/h 4mph /  6.4km/h 89.3% 0.01in /  0.25mm 40 W/m2
09:34 53.2 °F /  11.8 °C 50.4 °F /  10.2 °C 29.89in /  1012.1hPa SSW 2.1mph /  3.4km/h 5mph /  8km/h 90% 0.01in /  0.25mm 40 W/m2
09:39 53.1 °F /  11.7 °C 50.3 °F /  10.2 °C 29.89in /  1012.1hPa SSW 2mph /  3.2km/h 6mph /  9.7km/h 90% 0.01in /  0.25mm 35 W/m2
09:44 53.1 °F /  11.7 °C 50.2 °F /  10.1 °C 29.89in /  1012.1hPa South 2.8mph /  4.5km/h 7mph /  11.3km/h 90% 0.01in /  0.25mm 44 W/m2
09:49 53.1 °F /  11.7 °C 50.2 °F /  10.1 °C 29.88in /  1011.7hPa South 3.6mph /  5.8km/h 8mph /  12.9km/h 90% 0.01in /  0.25mm 46 W/m2
09:54 53.1 °F /  11.7 °C 50.4 °F /  10.2 °C 29.88in /  1011.7hPa SSE 4.5mph /  7.2km/h 9mph /  14.5km/h 90.5% 0.00in /  0mm 44 W/m2
09:59 53.2 °F /  11.8 °C 50.7 °F /  10.4 °C 29.88in /  1011.7hPa SSE 4mph /  6.4km/h 8mph /  12.9km/h 90.9% 0.00in /  0mm 46 W/m2
10:04 53.4 °F /  11.9 °C 50.7 °F /  10.4 °C 29.87in /  1011.4hPa SSE 4.1mph /  6.6km/h 8mph /  12.9km/h 90.5% 0.00in /  0mm 42 W/m2
10:09 53.4 °F /  11.9 °C 50.5 °F /  10.3 °C 29.87in /  1011.4hPa SSE 3.2mph /  5.1km/h 8mph /  12.9km/h 90% 0.00in /  0mm 69 W/m2
10:14 53.6 °F /  12 °C 50.7 °F /  10.4 °C 29.87in /  1011.4hPa SSE 3.6mph /  5.8km/h 11mph /  17.7km/h 90% 0.00in /  0mm 63 W/m2
10:19 53.8 °F /  12.1 °C 50.9 °F /  10.5 °C 29.86in /  1011.1hPa SSE 3.4mph /  5.5km/h 8mph /  12.9km/h 90% 0.00in /  0mm 74 W/m2
10:24 53.9 °F /  12.2 °C 51 °F /  10.6 °C 29.86in /  1011.1hPa SSE 4.4mph /  7.1km/h 8mph /  12.9km/h 90% 0.00in /  0mm 77 W/m2
10:29 54 °F /  12.2 °C 51.2 °F /  10.7 °C 29.86in /  1011.1hPa SSE 3.7mph /  6km/h 8mph /  12.9km/h 90% 0.00in /  0mm 86 W/m2
10:34 54.2 °F /  12.3 °C 51.3 °F /  10.7 °C 29.85in /  1010.7hPa SSE 3.4mph /  5.5km/h 8mph /  12.9km/h 90% 0.00in /  0mm 113 W/m2
10:39 54.4 °F /  12.4 °C 51.5 °F /  10.8 °C 29.85in /  1010.7hPa SSE 5.2mph /  8.4km/h 10mph /  16.1km/h 90% 0.00in /  0mm 91 W/m2
10:44 54.7 °F /  12.6 °C 51.5 °F /  10.8 °C 29.85in /  1010.7hPa South 4.5mph /  7.2km/h 8mph /  12.9km/h 89.2% 0.00in /  0mm 77 W/m2
10:49 54.8 °F /  12.7 °C 51.5 °F /  10.8 °C 29.85in /  1010.7hPa South 5.4mph /  8.7km/h 10mph /  16.1km/h 89% 0.00in /  0mm 72 W/m2
10:54 54.9 °F /  12.7 °C 51.6 °F /  10.9 °C 29.85in /  1010.7hPa SSE 4.9mph /  7.9km/h 9mph /  14.5km/h 89% 0.00in /  0mm 70 W/m2
10:59 55 °F /  12.8 °C 51.8 °F /  11 °C 29.84in /  1010.4hPa SSE 6.2mph /  10km/h 11mph /  17.7km/h 89% 0.00in /  0mm 60 W/m2
11:04 55.1 °F /  12.8 °C 51.7 °F /  10.9 °C 29.84in /  1010.4hPa South 6.3mph /  10.1km/h 13mph /  20.9km/h 88% 0.01in /  0.25mm 54 W/m2
11:09 55.3 °F /  12.9 °C 51.9 °F /  11.1 °C 29.84in /  1010.4hPa SSE 6.4mph /  10.3km/h 12mph /  19.3km/h 88% 0.01in /  0.25mm 63 W/m2
11:14 55.5 °F /  13.1 °C 52.1 °F /  11.2 °C 29.84in /  1010.4hPa SSE 7.2mph /  11.6km/h 12mph /  19.3km/h 88% 0.01in /  0.25mm 76 W/m2
11:19 55.7 °F /  13.2 °C 52.2 °F /  11.2 °C 29.83in /  1010hPa South 7.4mph /  11.9km/h 13mph /  20.9km/h 87.8% 0.01in /  0.25mm 72 W/m2
11:24 55.8 °F /  13.2 °C 52.1 °F /  11.2 °C 29.83in /  1010hPa South 7.1mph /  11.4km/h 11mph /  17.7km/h 87% 0.01in /  0.25mm 60 W/m2
11:29 55.9 °F /  13.3 °C 52.2 °F /  11.2 °C 29.83in /  1010hPa SSE 5.4mph /  8.7km/h 11mph /  17.7km/h 87% 0.01in /  0.25mm 56 W/m2
11:34 55.9 °F /  13.3 °C 52.2 °F /  11.2 °C 29.83in /  1010hPa SSE 5.7mph /  9.2km/h 11mph /  17.7km/h 87% 0.01in /  0.25mm 69 W/m2
11:39 56.1 °F /  13.4 °C 52.3 °F /  11.3 °C 29.83in /  1010hPa South 6.1mph /  9.8km/h 13mph /  20.9km/h 87% 0.01in /  0.25mm 67 W/m2
11:44 56.4 °F /  13.6 °C 52.6 °F /  11.4 °C 29.82in /  1009.7hPa South 6.2mph /  10km/h 13mph /  20.9km/h 87% 0.01in /  0.25mm 102 W/m2
11:49 56.6 °F /  13.7 °C 52.8 °F /  11.6 °C 29.82in /  1009.7hPa South 6.8mph /  10.9km/h 17mph /  27.4km/h 87% 0.01in /  0.25mm 107 W/m2
11:54 56.8 °F /  13.8 °C 52.9 °F /  11.6 °C 29.82in /  1009.7hPa South 6.6mph /  10.6km/h 13mph /  20.9km/h 86.5% 0.01in /  0.25mm 74 W/m2
11:59 57 °F /  13.9 °C 52.9 °F /  11.6 °C 29.82in /  1009.7hPa South 10mph /  16.1km/h 22mph /  35.4km/h 86% 0.01in /  0.25mm 95 W/m2
12:04 56.8 °F /  13.8 °C 52.8 °F /  11.6 °C 29.83in /  1010hPa SSW 7.5mph /  12.1km/h 17mph /  27.4km/h 86.5% 0.01in /  0.25mm 70 W/m2
12:09 56.6 °F /  13.7 °C 52.8 °F /  11.6 °C 29.83in /  1010hPa South 8.8mph /  14.2km/h 20mph /  32.2km/h 87.1% 0.00in /  0mm 67 W/m2
12:14 56.2 °F /  13.4 °C 52.8 °F /  11.6 °C 29.82in /  1009.7hPa South 8.9mph /  14.3km/h 20mph /  32.2km/h 88% 0.00in /  0mm 67 W/m2
12:19 56 °F /  13.3 °C 52.7 °F /  11.5 °C 29.82in /  1009.7hPa South 8.5mph /  13.7km/h 18mph /  29km/h 88.6% 0.00in /  0mm 60 W/m2
12:24 55.9 °F /  13.3 °C 52.7 °F /  11.5 °C 29.82in /  1009.7hPa South 6.7mph /  10.8km/h 15mph /  24.1km/h 89% 0.00in /  0mm 70 W/m2
12:29 55.9 °F /  13.3 °C 53.1 °F /  11.7 °C 29.81in /  1009.4hPa South 8mph /  12.9km/h 16mph /  25.7km/h 89.9% 0.00in /  0mm 102 W/m2
12:34 55.9 °F /  13.3 °C 53.1 °F /  11.7 °C 29.81in /  1009.4hPa South 7.2mph /  11.6km/h 16mph /  25.7km/h 90% 0.00in /  0mm 72 W/m2
12:39 56.1 °F /  13.4 °C 53.3 °F /  11.8 °C 29.80in /  1009hPa South 7.9mph /  12.7km/h 17mph /  27.4km/h 90.3% 0.00in /  0mm 77 W/m2
12:44 56.3 °F /  13.5 °C 53.8 °F /  12.1 °C 29.79in /  1008.7hPa SSW 8.5mph /  13.7km/h 18mph /  29km/h 91% 0.00in /  0mm 63 W/m2
12:49 56.7 °F /  13.7 °C 54.1 °F /  12.3 °C 29.79in /  1008.7hPa South 8.8mph /  14.2km/h 16mph /  25.7km/h 91% 0.00in /  0mm 100 W/m2
12:54 56.9 °F /  13.8 °C 54.4 °F /  12.4 °C 29.79in /  1008.7hPa SSW 6.8mph /  10.9km/h 17mph /  27.4km/h 91% 0.00in /  0mm 88 W/m2
12:59 57.2 °F /  14 °C 54.7 °F /  12.6 °C 29.78in /  1008.4hPa SSW 7.7mph /  12.4km/h 14mph /  22.5km/h 91% 0.00in /  0mm 65 W/m2
13:04 57.7 °F /  14.3 °C 55.2 °F /  12.9 °C 29.79in /  1008.7hPa SSW 5.3mph /  8.5km/h 15mph /  24.1km/h 91.2% 0.00in /  0mm 51 W/m2
13:09 58.2 °F /  14.6 °C 55.7 °F /  13.2 °C 29.78in /  1008.4hPa SSW 9.4mph /  15.1km/h 20mph /  32.2km/h 91.6% 0.00in /  0mm 76 W/m2
13:14 58.6 °F /  14.8 °C 55.9 °F /  13.3 °C 29.78in /  1008.4hPa SSW 9.3mph /  15km/h 20mph /  32.2km/h 91% 0.00in /  0mm 102 W/m2
13:19 59 °F /  15 °C 56.3 °F /  13.5 °C 29.77in /  1008hPa SSW 9.5mph /  15.3km/h 20mph /  32.2km/h 91% 0.00in /  0mm 102 W/m2
13:24 59.3 °F /  15.2 °C 56.6 °F /  13.7 °C 29.77in /  1008hPa SSW 9.9mph /  15.9km/h 22mph /  35.4km/h 91% 0.00in /  0mm 84 W/m2
13:29 59.5 °F /  15.3 °C 56.7 °F /  13.7 °C 29.76in /  1007.7hPa SSW 10.3mph /  16.6km/h 23mph /  37km/h 90% 0.00in /  0mm 107 W/m2
13:34 59.7 °F /  15.4 °C 56.7 °F /  13.7 °C 29.76in /  1007.7hPa SSW 8.8mph /  14.2km/h 23mph /  37km/h 89.6% 0.00in /  0mm 113 W/m2
13:39 60.1 °F /  15.6 °C 56.7 °F /  13.7 °C 29.76in /  1007.7hPa SSW 10.7mph /  17.2km/h 22mph /  35.4km/h 88.8% 0.00in /  0mm 118 W/m2
13:44 60.2 °F /  15.7 °C 56.6 °F /  13.7 °C 29.75in /  1007.3hPa SSW 9.8mph /  15.8km/h 20mph /  32.2km/h 88% 0.00in /  0mm 118 W/m2
13:49 60.3 °F /  15.7 °C 56.6 °F /  13.7 °C 29.75in /  1007.3hPa SSW 9.9mph /  15.9km/h 23mph /  37km/h 87.7% 0.00in /  0mm 118 W/m2
13:54 60.4 °F /  15.8 °C 56.5 °F /  13.6 °C 29.75in /  1007.3hPa SSW 10.4mph /  16.7km/h 22mph /  35.4km/h 87% 0.00in /  0mm 120 W/m2
13:59 60.5 °F /  15.8 °C 56.6 °F /  13.7 °C 29.75in /  1007.3hPa SSW 9.9mph /  15.9km/h 23mph /  37km/h 87% 0.00in /  0mm 144 W/m2
14:04 60.6 °F /  15.9 °C 56.7 °F /  13.7 °C 29.75in /  1007.3hPa SSW 12mph /  19.3km/h 23mph /  37km/h 86.9% 0.00in /  0mm 155 W/m2
14:09 60.9 °F /  16.1 °C 56.7 °F /  13.7 °C 29.74in /  1007hPa SSW 8.5mph /  13.7km/h 23mph /  37km/h 86% 0.00in /  0mm 165 W/m2
14:14 61 °F /  16.1 °C 56.8 °F /  13.8 °C 29.74in /  1007hPa SSW 7.9mph /  12.7km/h 16mph /  25.7km/h 86% 0.00in /  0mm 162 W/m2
14:19 61.1 °F /  16.2 °C 56.9 °F /  13.8 °C 29.75in /  1007.3hPa SSW 10.3mph /  16.6km/h 21mph /  33.8km/h 86% 0.00in /  0mm 155 W/m2
14:24 61.3 °F /  16.3 °C 57.1 °F /  13.9 °C 29.74in /  1007hPa SW 9.9mph /  15.9km/h 21mph /  33.8km/h 86% 0.00in /  0mm 301 W/m2
14:29 61.5 °F /  16.4 °C 57.2 °F /  14 °C 29.74in /  1007hPa SSW 10.1mph /  16.3km/h 21mph /  33.8km/h 85.4% 0.00in /  0mm 244 W/m2
14:34 61.7 °F /  16.5 °C 57.2 °F /  14 °C 29.74in /  1007hPa SSW 10.5mph /  16.9km/h 24mph /  38.6km/h 85% 0.00in /  0mm 269 W/m2
14:39 61.9 °F /  16.6 °C 57.2 °F /  14 °C 29.74in /  1007hPa SW 11.4mph /  18.3km/h 25mph /  40.2km/h 84.4% 0.00in /  0mm 202 W/m2
14:44 61.9 °F /  16.6 °C 57 °F /  13.9 °C 29.74in /  1007hPa SW 8.8mph /  14.2km/h 17mph /  27.4km/h 84% 0.00in /  0mm 178 W/m2
14:49 61.9 °F /  16.6 °C 57 °F /  13.9 °C 29.74in /  1007hPa SW 10.7mph /  17.2km/h 23mph /  37km/h 84% 0.00in /  0mm 183 W/m2
14:54 62.1 °F /  16.7 °C 57.2 °F /  14 °C 29.75in /  1007.3hPa SW 12mph /  19.3km/h 21mph /  33.8km/h 84% 0.00in /  0mm 183 W/m2
14:59 62.1 °F /  16.7 °C 57.2 °F /  14 °C 29.75in /  1007.3hPa SW 11.2mph /  18km/h 19mph /  30.6km/h 84% 0.00in /  0mm 123 W/m2
15:04 62.1 °F /  16.7 °C 57.2 °F /  14 °C 29.75in /  1007.3hPa SW 8.3mph /  13.4km/h 17mph /  27.4km/h 84% 0.00in /  0mm 118 W/m2
15:09 61.9 °F /  16.6 °C 57 °F /  13.9 °C 29.75in /  1007.3hPa SW 10.8mph /  17.4km/h 18mph /  29km/h 84% 0.00in /  0mm 62 W/m2
15:14 61.9 °F /  16.6 °C 57 °F /  13.9 °C 29.75in /  1007.3hPa SW 10.5mph /  16.9km/h 19mph /  30.6km/h 84% 0.00in /  0mm 53 W/m2
15:19 61.9 °F /  16.6 °C 57 °F /  13.9 °C 29.75in /  1007.3hPa SW 7.8mph /  12.6km/h 19mph /  30.6km/h 84% 0.00in /  0mm 46 W/m2
15:24 61.7 °F /  16.5 °C 56.9 °F /  13.8 °C 29.75in /  1007.3hPa SW 7.5mph /  12.1km/h 17mph /  27.4km/h 84.2% 0.00in /  0mm 53 W/m2
15:29 61.8 °F /  16.6 °C 57.3 °F /  14.1 °C 29.75in /  1007.3hPa SW 11.9mph /  19.2km/h 22mph /  35.4km/h 85% 0.00in /  0mm 49 W/m2
15:34 61.8 °F /  16.6 °C 57.3 °F /  14.1 °C 29.74in /  1007hPa SW 9.7mph /  15.6km/h 19mph /  30.6km/h 85% 0.00in /  0mm 47 W/m2
15:39 61.7 °F /  16.5 °C 57.2 °F /  14 °C 29.74in /  1007hPa SW 10.4mph /  16.7km/h 25mph /  40.2km/h 85% 0.00in /  0mm 60 W/m2
15:44 61.6 °F /  16.4 °C 57.1 °F /  13.9 °C 29.74in /  1007hPa SW 8.2mph /  13.2km/h 18mph /  29km/h 85% 0.00in /  0mm 60 W/m2
15:49 61.5 °F /  16.4 °C 57 °F /  13.9 °C 29.74in /  1007hPa SSW 9.4mph /  15.1km/h 22mph /  35.4km/h 85% 0.00in /  0mm 46 W/m2
15:54 61.5 °F /  16.4 °C 57 °F /  13.9 °C 29.73in /  1006.7hPa SSW 11mph /  17.7km/h 22mph /  35.4km/h 85% 0.00in /  0mm 42 W/m2
15:59 61.5 °F /  16.4 °C 57 °F /  13.9 °C 29.73in /  1006.7hPa SW 10.5mph /  16.9km/h 22mph /  35.4km/h 85% 0.00in /  0mm 44 W/m2
16:04 61.5 °F /  16.4 °C 57 °F /  13.9 °C 29.73in /  1006.7hPa SW 10.1mph /  16.3km/h 23mph /  37km/h 85% 0.00in /  0mm 46 W/m2
16:09 61.5 °F /  16.4 °C 57 °F /  13.9 °C 29.73in /  1006.7hPa SW 8.3mph /  13.4km/h 17mph /  27.4km/h 85% 0.00in /  0mm 28 W/m2
16:14 61.5 °F /  16.4 °C 57 °F /  13.9 °C 29.73in /  1006.7hPa SW 10mph /  16.1km/h 19mph /  30.6km/h 85% 0.00in /  0mm 26 W/m2
16:19 61.4 °F /  16.3 °C 57.2 °F /  14 °C 29.73in /  1006.7hPa SW 9.1mph /  14.6km/h 20mph /  32.2km/h 85.8% 0.00in /  0mm 28 W/m2
16:24 61.2 °F /  16.2 °C 57.1 °F /  13.9 °C 29.73in /  1006.7hPa SW 12.3mph /  19.8km/h 25mph /  40.2km/h 86% 0.00in /  0mm 19 W/m2
16:29 61.1 °F /  16.2 °C 57 °F /  13.9 °C 29.73in /  1006.7hPa SW 7.4mph /  11.9km/h 25mph /  40.2km/h 86.4% 0.00in /  0mm 16 W/m2
16:34 61 °F /  16.1 °C 57 °F /  13.9 °C 29.73in /  1006.7hPa SW 8.9mph /  14.3km/h 17mph /  27.4km/h 87% 0.00in /  0mm 19 W/m2
16:39 60.9 °F /  16.1 °C 56.9 °F /  13.8 °C 29.72in /  1006.3hPa SW 9.4mph /  15.1km/h 18mph /  29km/h 87% 0.00in /  0mm 16 W/m2
16:44 60.8 °F /  16 °C 56.8 °F /  13.8 °C 29.72in /  1006.3hPa SSW 8mph /  12.9km/h 18mph /  29km/h 87% 0.00in /  0mm 18 W/m2
16:49 60.8 °F /  16 °C 56.8 °F /  13.8 °C 29.72in /  1006.3hPa SW 11.4mph /  18.3km/h 26mph /  41.8km/h 87% 0.00in /  0mm 18 W/m2
16:54 61 °F /  16.1 °C 57 °F /  13.9 °C 29.72in /  1006.3hPa SSW 12.1mph /  19.5km/h 26mph /  41.8km/h 86.9% 0.00in /  0mm 18 W/m2
16:59 61.1 °F /  16.2 °C 56.9 °F /  13.8 °C 29.71in /  1006hPa SW 11.6mph /  18.7km/h 24mph /  38.6km/h 86% 0.00in /  0mm 25 W/m2
17:04 61.2 °F /  16.2 °C 57 °F /  13.9 °C 29.71in /  1006hPa SW 12.8mph /  20.6km/h 24mph /  38.6km/h 86% 0.00in /  0mm 16 W/m2
17:09 61.3 °F /  16.3 °C 56.8 °F /  13.8 °C 29.72in /  1006.3hPa SW 12.8mph /  20.6km/h 22mph /  35.4km/h 85% 0.00in /  0mm 16 W/m2
17:14 61.3 °F /  16.3 °C 56.7 °F /  13.7 °C 29.72in /  1006.3hPa SW 11.8mph /  19km/h 25mph /  40.2km/h 84.6% 0.00in /  0mm 12 W/m2
17:19 61.3 °F /  16.3 °C 56.5 °F /  13.6 °C 29.71in /  1006hPa SSW 8.4mph /  13.5km/h 19mph /  30.6km/h 84% 0.00in /  0mm 11 W/m2
17:24 61.3 °F /  16.3 °C 56.5 °F /  13.6 °C 29.70in /  1005.6hPa SW 11mph /  17.7km/h 21mph /  33.8km/h 84% 0.00in /  0mm 9 W/m2
17:29 61.3 °F /  16.3 °C 56.4 °F /  13.6 °C 29.71in /  1006hPa SW 11.8mph /  19km/h 20mph /  32.2km/h 84% 0.00in /  0mm 5 W/m2
17:34 61.2 °F /  16.2 °C 56.3 °F /  13.5 °C 29.71in /  1006hPa SW 13.9mph /  22.4km/h 25mph /  40.2km/h 84% 0.00in /  0mm 0 W/m2
17:39 61.2 °F /  16.2 °C 56.3 °F /  13.5 °C 29.71in /  1006hPa SW 12.7mph /  20.4km/h 25mph /  40.2km/h 84% 0.00in /  0mm 0 W/m2
17:44 61.2 °F /  16.2 °C 56.3 °F /  13.5 °C 29.71in /  1006hPa SSW 12.5mph /  20.1km/h 29mph /  46.7km/h 84% 0.00in /  0mm 0 W/m2
17:49 61.1 °F /  16.2 °C 56.4 °F /  13.6 °C 29.70in /  1005.6hPa SW 11.2mph /  18km/h 29mph /  46.7km/h 84.6% 0.00in /  0mm 0 W/m2
17:54 60.7 °F /  15.9 °C 56.2 °F /  13.4 °C 29.70in /  1005.6hPa SW 12.9mph /  20.8km/h 25mph /  40.2km/h 85% 0.00in /  0mm 0 W/m2
17:59 60.5 °F /  15.8 °C 56.3 °F /  13.5 °C 29.70in /  1005.6hPa SSW 12mph /  19.3km/h 25mph /  40.2km/h 85.9% 0.00in /  0mm 0 W/m2
18:04 60.2 °F /  15.7 °C 56.2 °F /  13.4 °C 29.70in /  1005.6hPa SSW 7.5mph /  12.1km/h 23mph /  37km/h 86.6% 0.00in /  0mm 0 W/m2
18:09 59.8 °F /  15.4 °C 56 °F /  13.3 °C 29.70in /  1005.6hPa SSW 11.1mph /  17.9km/h 21mph /  33.8km/h 87.4% 0.01in /  0.25mm 0 W/m2
18:14 59.6 °F /  15.3 °C 56 °F /  13.3 °C 29.70in /  1005.6hPa SW 10.1mph /  16.3km/h 22mph /  35.4km/h 88% 0.01in /  0.25mm 0 W/m2
18:19 59.5 °F /  15.3 °C 56.2 °F /  13.4 °C 29.70in /  1005.6hPa SSW 11.7mph /  18.8km/h 23mph /  37km/h 88.9% 0.01in /  0.25mm 0 W/m2
18:24 59.5 °F /  15.3 °C 56.2 °F /  13.4 °C 29.70in /  1005.6hPa SW 10mph /  16.1km/h 22mph /  35.4km/h 89% 0.01in /  0.25mm 0 W/m2
18:29 59.4 °F /  15.2 °C 56.1 °F /  13.4 °C 29.70in /  1005.6hPa SW 13.5mph /  21.7km/h 30mph /  48.3km/h 89% 0.01in /  0.25mm 0 W/m2
18:34 59.4 °F /  15.2 °C 56.1 °F /  13.4 °C 29.70in /  1005.6hPa SW 13.2mph /  21.2km/h 24mph /  38.6km/h 89% 0.01in /  0.25mm 0 W/m2
18:39 59.4 °F /  15.2 °C 56.1 °F /  13.4 °C 29.70in /  1005.6hPa SSW 12.5mph /  20.1km/h 25mph /  40.2km/h 89% 0.01in /  0.25mm 0 W/m2
18:44 59.2 °F /  15.1 °C 55.9 °F /  13.3 °C 29.70in /  1005.6hPa SSW 12mph /  19.3km/h 25mph /  40.2km/h 89% 0.02in /  0.51mm 0 W/m2
18:49 59.2 °F /  15.1 °C 56.2 °F /  13.4 °C 29.70in /  1005.6hPa SSW 12.5mph /  20.1km/h 25mph /  40.2km/h 89.9% 0.02in /  0.51mm 0 W/m2
18:54 59.2 °F /  15.1 °C 56.3 °F /  13.5 °C 29.70in /  1005.6hPa SSW 11.6mph /  18.7km/h 25mph /  40.2km/h 90% 0.02in /  0.51mm 0 W/m2
18:59 59.3 °F /  15.2 °C 56.4 °F /  13.6 °C 29.70in /  1005.6hPa SW 12.1mph /  19.5km/h 30mph /  48.3km/h 90% 0.02in /  0.51mm 0 W/m2
19:04 59.3 °F /  15.2 °C 56.4 °F /  13.6 °C 29.70in /  1005.6hPa SSW 10.8mph /  17.4km/h 28mph /  45.1km/h 90% 0.02in /  0.51mm 0 W/m2
19:09 59.3 °F /  15.2 °C 56.4 °F /  13.6 °C 29.70in /  1005.6hPa SSW 8.9mph /  14.3km/h 29mph /  46.7km/h 90% 0.02in /  0.51mm 0 W/m2
19:14 59.4 °F /  15.2 °C 56.5 °F /  13.6 °C 29.70in /  1005.6hPa SSW 10.6mph /  17.1km/h 18mph /  29km/h 90% 0.01in /  0.25mm 0 W/m2
19:19 59.5 °F /  15.3 °C 56.6 °F /  13.7 °C 29.70in /  1005.6hPa SSW 13.6mph /  21.9km/h 27mph /  43.5km/h 90% 0.01in /  0.25mm 0 W/m2
19:24 59.6 °F /  15.3 °C 56.7 °F /  13.7 °C 29.70in /  1005.6hPa SW 14.8mph /  23.8km/h 30mph /  48.3km/h 90% 0.01in /  0.25mm 0 W/m2
19:29 59.6 °F /  15.3 °C 56.8 °F /  13.8 °C 29.70in /  1005.6hPa SW 11mph /  17.7km/h 29mph /  46.7km/h 90% 0.01in /  0.25mm 0 W/m2
19:34 59.5 °F /  15.3 °C 56.7 °F /  13.7 °C 29.70in /  1005.6hPa SSW 11.6mph /  18.7km/h 28mph /  45.1km/h 90% 0.01in /  0.25mm 0 W/m2
19:39 59.5 °F /  15.3 °C 56.7 °F /  13.7 °C 29.70in /  1005.6hPa SSW 11.7mph /  18.8km/h 22mph /  35.4km/h 90% 0.01in /  0.25mm 0 W/m2
19:44 59.5 °F /  15.3 °C 56.7 °F /  13.7 °C 29.70in /  1005.6hPa SW 9.3mph /  15km/h 23mph /  37km/h 90% 0.01in /  0.25mm 0 W/m2
19:49 59.5 °F /  15.3 °C 56.7 °F /  13.7 °C 29.70in /  1005.6hPa SSW 9.8mph /  15.8km/h 23mph /  37km/h 90.1% 0.00in /  0mm 0 W/m2
19:54 59.5 °F /  15.3 °C 56.8 °F /  13.8 °C 29.70in /  1005.6hPa SW 14.3mph /  23km/h 27mph /  43.5km/h 91% 0.00in /  0mm 0 W/m2
19:59 59.5 °F /  15.3 °C 56.8 °F /  13.8 °C 29.70in /  1005.6hPa SW 9.3mph /  15km/h 25mph /  40.2km/h 91% 0.00in /  0mm 0 W/m2
20:04 59.5 °F /  15.3 °C 56.8 °F /  13.8 °C 29.70in /  1005.6hPa SW 14.9mph /  24km/h 32mph /  51.5km/h 91% 0.00in /  0mm 0 W/m2
20:09 59.7 °F /  15.4 °C 57 °F /  13.9 °C 29.70in /  1005.6hPa SW 13.6mph /  21.9km/h 25mph /  40.2km/h 91% 0.00in /  0mm 0 W/m2
20:14 59.8 °F /  15.4 °C 57.1 °F /  13.9 °C 29.70in /  1005.6hPa SW 13.3mph /  21.4km/h 23mph /  37km/h 91% 0.00in /  0mm 0 W/m2
20:19 59.9 °F /  15.5 °C 57.2 °F /  14 °C 29.70in /  1005.6hPa SW 11.4mph /  18.3km/h 21mph /  33.8km/h 91% 0.00in /  0mm 0 W/m2
20:24 59.7 °F /  15.4 °C 56.9 °F /  13.8 °C 29.70in /  1005.6hPa SW 10.8mph /  17.4km/h 24mph /  38.6km/h 90.6% 0.01in /  0.25mm 0 W/m2
20:29 59.8 °F /  15.4 °C 57.1 °F /  13.9 °C 29.70in /  1005.6hPa SW 11.8mph /  19km/h 27mph /  43.5km/h 91% 0.01in /  0.25mm 0 W/m2
20:34 59.9 °F /  15.5 °C 57.2 °F /  14 °C 29.69in /  1005.3hPa SW 13.5mph /  21.7km/h 27mph /  43.5km/h 91% 0.01in /  0.25mm 0 W/m2
20:39 60 °F /  15.6 °C 57.3 °F /  14.1 °C 29.69in /  1005.3hPa SW 12.2mph /  19.6km/h 29mph /  46.7km/h 91% 0.01in /  0.25mm 0 W/m2
20:44 60.1 °F /  15.6 °C 57.4 °F /  14.1 °C 29.69in /  1005.3hPa SW 12.9mph /  20.8km/h 29mph /  46.7km/h 91% 0.01in /  0.25mm 0 W/m2
20:49 60.3 °F /  15.7 °C 57.4 °F /  14.1 °C 29.69in /  1005.3hPa SW 13.1mph /  21.1km/h 29mph /  46.7km/h 90% 0.01in /  0.25mm 0 W/m2
20:54 60.3 °F /  15.7 °C 57.3 °F /  14.1 °C 29.69in /  1005.3hPa SW 9.5mph /  15.3km/h 17mph /  27.4km/h 90% 0.01in /  0.25mm 0 W/m2
20:59 60.2 °F /  15.7 °C 57.3 °F /  14.1 °C 29.68in /  1005hPa SW 12.2mph /  19.6km/h 21mph /  33.8km/h 90% 0.02in /  0.51mm 0 W/m2
21:04 60.3 °F /  15.7 °C 57.4 °F /  14.1 °C 29.69in /  1005.3hPa SW 13.1mph /  21.1km/h 24mph /  38.6km/h 90% 0.02in /  0.51mm 0 W/m2
21:09 60.3 °F /  15.7 °C 57.4 °F /  14.1 °C 29.69in /  1005.3hPa SW 12.8mph /  20.6km/h 28mph /  45.1km/h 90% 0.02in /  0.51mm 0 W/m2
21:14 60.4 °F /  15.8 °C 57.5 °F /  14.2 °C 29.68in /  1005hPa SW 11.7mph /  18.8km/h 22mph /  35.4km/h 90% 0.02in /  0.51mm 0 W/m2
21:19 60.4 °F /  15.8 °C 57.6 °F /  14.2 °C 29.69in /  1005.3hPa SW 10.7mph /  17.2km/h 24mph /  38.6km/h 90% 0.02in /  0.51mm 0 W/m2
21:24 60.4 °F /  15.8 °C 57.6 °F /  14.2 °C 29.68in /  1005hPa SW 10.1mph /  16.3km/h 23mph /  37km/h 90% 0.02in /  0.51mm 0 W/m2
21:29 60.4 °F /  15.8 °C 57.6 °F /  14.2 °C 29.68in /  1005hPa SW 12.2mph /  19.6km/h 23mph /  37km/h 90% 0.01in /  0.25mm 0 W/m2
21:34 60.4 °F /  15.8 °C 57.5 °F /  14.2 °C 29.69in /  1005.3hPa SW 13.2mph /  21.2km/h 32mph /  51.5km/h 90% 0.01in /  0.25mm 0 W/m2
21:39 60.4 °F /  15.8 °C 57.6 °F /  14.2 °C 29.69in /  1005.3hPa SW 13.5mph /  21.7km/h 32mph /  51.5km/h 90% 0.01in /  0.25mm 0 W/m2
21:44 60.4 °F /  15.8 °C 57.6 °F /  14.2 °C 29.68in /  1005hPa SW 13.6mph /  21.9km/h 29mph /  46.7km/h 90% 0.01in /  0.25mm 0 W/m2
21:49 60.3 °F /  15.7 °C 57.4 °F /  14.1 °C 29.69in /  1005.3hPa SW 10.7mph /  17.2km/h 21mph /  33.8km/h 90% 0.01in /  0.25mm 0 W/m2
21:54 60.3 °F /  15.7 °C 57.4 °F /  14.1 °C 29.69in /  1005.3hPa SW 12.7mph /  20.4km/h 24mph /  38.6km/h 90% 0.01in /  0.25mm 0 W/m2
21:59 60.3 °F /  15.7 °C 57.4 °F /  14.1 °C 29.69in /  1005.3hPa SW 10mph /  16.1km/h 24mph /  38.6km/h 90% 0.01in /  0.25mm 0 W/m2
22:04 60.3 °F /  15.7 °C 57.4 °F /  14.1 °C 29.69in /  1005.3hPa SW 10.5mph /  16.9km/h 26mph /  41.8km/h 90% 0.00in /  0mm 0 W/m2
22:09 60.3 °F /  15.7 °C 57.4 °F /  14.1 °C 29.69in /  1005.3hPa SW 12.6mph /  20.3km/h 26mph /  41.8km/h 90% 0.01in /  0.25mm 0 W/m2
22:14 60.3 °F /  15.7 °C 57.4 °F /  14.1 °C 29.69in /  1005.3hPa SW 12.2mph /  19.6km/h 22mph /  35.4km/h 90% 0.01in /  0.25mm 0 W/m2
22:19 60.3 °F /  15.7 °C 57.5 °F /  14.2 °C 29.69in /  1005.3hPa SW 14.2mph /  22.9km/h 23mph /  37km/h 90% 0.01in /  0.25mm 0 W/m2
22:24 60.4 °F /  15.8 °C 57.6 °F /  14.2 °C 29.69in /  1005.3hPa SW 13.5mph /  21.7km/h 24mph /  38.6km/h 90% 0.01in /  0.25mm 0 W/m2
22:29 60.4 °F /  15.8 °C 57.6 °F /  14.2 °C 29.69in /  1005.3hPa SW 11.2mph /  18km/h 28mph /  45.1km/h 90% 0.01in /  0.25mm 0 W/m2
22:34 60.4 °F /  15.8 °C 57.6 °F /  14.2 °C 29.69in /  1005.3hPa SW 13.9mph /  22.4km/h 31mph /  49.9km/h 90% 0.01in /  0.25mm 0 W/m2
22:39 60.5 °F /  15.8 °C 57.6 °F /  14.2 °C 29.69in /  1005.3hPa SW 12.8mph /  20.6km/h 31mph /  49.9km/h 90% 0.01in /  0.25mm 0 W/m2
22:44 60.4 °F /  15.8 °C 57.6 °F /  14.2 °C 29.70in /  1005.6hPa SW 11.5mph /  18.5km/h 19mph /  30.6km/h 90% 0.01in /  0.25mm 0 W/m2
22:49 60.4 °F /  15.8 °C 57.5 °F /  14.2 °C 29.69in /  1005.3hPa SW 12.6mph /  20.3km/h 25mph /  40.2km/h 90% 0.02in /  0.51mm 0 W/m2
22:54 60.3 °F /  15.7 °C 57.4 °F /  14.1 °C 29.69in /  1005.3hPa SW 12.6mph /  20.3km/h 26mph /  41.8km/h 90% 0.02in /  0.51mm 0 W/m2
22:59 60.3 °F /  15.7 °C 57.4 °F /  14.1 °C 29.69in /  1005.3hPa SW 9.6mph /  15.4km/h 20mph /  32.2km/h 90% 0.02in /  0.51mm 0 W/m2
23:04 60.3 °F /  15.7 °C 57.4 °F /  14.1 °C 29.69in /  1005.3hPa SW 13.3mph /  21.4km/h 23mph /  37km/h 90% 0.02in /  0.51mm 0 W/m2
23:09 60.4 °F /  15.8 °C 57.5 °F /  14.2 °C 29.70in /  1005.6hPa SW 11.7mph /  18.8km/h 23mph /  37km/h 90% 0.01in /  0.25mm 0 W/m2
23:14 60.4 °F /  15.8 °C 57.6 °F /  14.2 °C 29.70in /  1005.6hPa SW 12.2mph /  19.6km/h 23mph /  37km/h 90% 0.01in /  0.25mm 0 W/m2
23:19 60.4 °F /  15.8 °C 57.6 °F /  14.2 °C 29.70in /  1005.6hPa SW 10mph /  16.1km/h 22mph /  35.4km/h 90% 0.01in /  0.25mm 0 W/m2
23:24 60.3 °F /  15.7 °C 57.5 °F /  14.2 °C 29.70in /  1005.6hPa SW 9.2mph /  14.8km/h 27mph /  43.5km/h 90% 0.01in /  0.25mm 0 W/m2
23:29 60.4 °F /  15.8 °C 57.6 °F /  14.2 °C 29.70in /  1005.6hPa SW 10.6mph /  17.1km/h 24mph /  38.6km/h 90% 0.01in /  0.25mm 0 W/m2
23:34 60.4 °F /  15.8 °C 57.5 °F /  14.2 °C 29.70in /  1005.6hPa SW 8.5mph /  13.7km/h 24mph /  38.6km/h 90% 0.01in /  0.25mm 0 W/m2
23:39 60.3 °F /  15.7 °C 57.4 °F /  14.1 °C 29.70in /  1005.6hPa SW 9.6mph /  15.4km/h 18mph /  29km/h 90% 0.01in /  0.25mm 0 W/m2
23:44 60.3 °F /  15.7 °C 57.5 °F /  14.2 °C 29.70in /  1005.6hPa SW 11.9mph /  19.2km/h 28mph /  45.1km/h 90% 0.01in /  0.25mm 0 W/m2
23:49 60.3 °F /  15.7 °C 57.5 °F /  14.2 °C 29.70in /  1005.6hPa SW 8.7mph /  14km/h 20mph /  32.2km/h 90% 0.02in /  0.51mm 0 W/m2
23:54 60.3 °F /  15.7 °C 57.5 °F /  14.2 °C 29.70in /  1005.6hPa SW 12.2mph /  19.6km/h 22mph /  35.4km/h 90.6% 0.01in /  0.25mm 0 W/m2
23:59 60.3 °F /  15.7 °C 57.6 °F /  14.2 °C 29.70in /  1005.6hPa SW 10.2mph /  16.4km/h 21mph /  33.8km/h 91% 0.01in /  0.25mm 0 W/m2
Bath Spa Weather
Compliments of Weather Underground - 2 mb